Time;durP1;ratioP1;P1;durP2;ratioP2;P2;SDS_P1;SDS_P2;PMS_P1;PMS_P2;Temp;Humidity;BMP_temperature;BMP_pressure;BME280_temperature;BME280_humidity;BME280_pressure;Samples;Min_cycle;Max_cycle;Signal;HPM_P1;HPM_P2
2021/12/29 00:00:16;;;;;;;8.70;5.23;;;7.50;74.40;;;;;;5020210;28;20025;-79
2021/12/29 00:02:42;;;;;;;11.40;6.70;;;7.50;74.30;;;;;;5022211;28;20036;-79
2021/12/29 00:05:09;;;;;;;12.67;8.53;;;7.40;74.20;;;;;;5028237;28;20473;-79
2021/12/29 00:07:37;;;;;;;10.13;8.23;;;7.40;74.30;;;;;;5023250;28;20025;-79
2021/12/29 00:10:05;;;;;;;14.77;8.10;;;7.40;74.60;;;;;;5026504;28;20028;-79
2021/12/29 00:12:34;;;;;;;9.93;7.67;;;7.40;74.50;;;;;;5035784;28;20068;-79
2021/12/29 00:15:00;;;;;;;13.33;8.43;;;7.40;74.60;;;;;;5013242;28;20040;-80
2021/12/29 00:17:26;;;;;;;13.20;7.30;;;7.40;74.80;;;;;;5029188;28;20030;-79
2021/12/29 00:19:52;;;;;;;11.47;7.00;;;7.40;74.80;;;;;;5029583;28;20106;-80
2021/12/29 00:22:17;;;;;;;10.90;7.33;;;7.50;74.80;;;;;;5003878;28;20136;-80
2021/12/29 00:24:45;;;;;;;12.53;8.60;;;7.50;74.70;;;;;;5028599;28;20029;-79
2021/12/29 00:27:10;;;;;;;14.10;9.63;;;7.50;74.80;;;;;;5024047;28;20036;-79
2021/12/29 00:29:36;;;;;;;12.90;9.23;;;7.50;74.80;;;;;;5014979;28;20026;-79
2021/12/29 00:32:02;;;;;;;12.20;9.00;;;7.40;74.70;;;;;;5025344;28;20013;-79
2021/12/29 00:34:28;;;;;;;13.40;8.17;;;7.40;75.00;;;;;;5024127;28;20034;-79
2021/12/29 00:36:54;;;;;;;15.07;8.93;;;7.50;75.10;;;;;;5017355;28;20388;-79
2021/12/29 00:39:19;;;;;;;8.57;7.00;;;7.40;74.90;;;;;;5025889;28;20108;-79
2021/12/29 00:41:45;;;;;;;11.90;7.13;;;7.50;74.90;;;;;;5022921;28;20030;-79
2021/12/29 00:44:11;;;;;;;8.63;6.30;;;7.50;74.90;;;;;;5029764;28;20088;-79
2021/12/29 00:46:39;;;;;;;13.53;8.50;;;7.50;74.80;;;;;;5028153;28;20393;-79
2021/12/29 00:49:07;;;;;;;14.60;7.97;;;7.50;74.80;;;;;;5027095;28;20124;-79
2021/12/29 00:51:35;;;;;;;10.50;7.30;;;7.40;74.90;;;;;;5023835;28;20024;-79
2021/12/29 00:54:01;;;;;;;11.53;7.83;;;7.40;75.00;;;;;;5022102;28;20033;-79
2021/12/29 00:56:27;;;;;;;11.33;6.60;;;7.40;75.10;;;;;;5027439;28;20089;-79
2021/12/29 00:58:52;;;;;;;10.73;7.73;;;7.40;75.10;;;;;;5026078;28;20025;-78
2021/12/29 01:01:18;;;;;;;10.07;7.33;;;7.40;75.10;;;;;;5029732;28;20029;-79
2021/12/29 01:03:44;;;;;;;10.20;7.10;;;7.40;75.00;;;;;;5024011;28;20029;-79
2021/12/29 01:06:11;;;;;;;9.07;5.50;;;7.40;75.10;;;;;;5026332;28;20026;-79
2021/12/29 01:08:36;;;;;;;10.03;5.20;;;7.40;75.30;;;;;;5023794;28;20382;-79
2021/12/29 01:11:04;;;;;;;7.93;5.10;;;7.30;75.30;;;;;;5029129;28;20033;-79
2021/12/29 01:13:31;;;;;;;9.23;5.40;;;7.40;75.50;;;;;;5011976;28;20071;-79
2021/12/29 01:18:31;;;;;;;7.43;5.43;;;7.40;75.10;;;;;;5030095;28;20021;-78
2021/12/29 01:20:57;;;;;;;9.30;5.67;;;7.40;75.20;;;;;;5026533;28;20033;-79
2021/12/29 01:23:23;;;;;;;6.87;5.30;;;7.40;75.10;;;;;;5028523;28;20041;-79
2021/12/29 01:25:49;;;;;;;9.77;5.17;;;7.50;75.10;;;;;;5028328;28;20030;-79
2021/12/29 01:28:15;;;;;;;11.40;5.73;;;7.40;75.10;;;;;;5031297;28;20625;-79
2021/12/29 01:30:42;;;;;;;12.63;7.03;;;7.40;75.30;;;;;;5019477;28;20030;-79
2021/12/29 01:33:08;;;;;;;11.67;7.73;;;7.50;75.30;;;;;;5025806;28;20056;-79
2021/12/29 01:35:34;;;;;;;13.03;8.60;;;7.50;75.10;;;;;;5033092;28;20045;-79
2021/12/29 01:38:01;;;;;;;13.43;7.53;;;7.50;75.20;;;;;;5030197;28;20034;-78
2021/12/29 01:40:28;;;;;;;12.73;8.50;;;7.50;75.20;;;;;;5028613;28;20030;-79
2021/12/29 01:42:54;;;;;;;11.73;8.73;;;7.50;75.30;;;;;;5031448;28;20033;-79
2021/12/29 01:45:20;;;;;;;11.53;8.50;;;7.40;75.20;;;;;;5028407;28;20052;-79
2021/12/29 01:47:46;;;;;;;11.07;8.77;;;7.40;75.40;;;;;;5023853;28;20830;-79
2021/12/29 01:50:13;;;;;;;12.53;8.37;;;7.40;75.90;;;;;;5029229;28;20400;-79
2021/12/29 01:52:41;;;;;;;12.30;8.00;;;7.40;75.40;;;;;;5025487;28;20053;-79
2021/12/29 01:55:13;;;;;;;11.67;7.67;;;7.40;75.50;;;;;;5034494;28;20014;-79
2021/12/29 01:57:40;;;;;;;15.20;8.33;;;7.40;75.50;;;;;;5031477;28;20033;-79
2021/12/29 02:00:10;;;;;;;13.30;8.37;;;7.40;75.30;;;;;;5029123;28;20055;-79
2021/12/29 02:02:35;;;;;;;7.63;5.63;;;7.40;75.50;;;;;;5034353;28;20102;-79
2021/12/29 02:05:01;;;;;;;13.83;8.07;;;7.30;75.80;;;;;;5029722;28;20076;-79
2021/12/29 02:07:28;;;;;;;8.90;7.13;;;7.30;75.90;;;;;;5028677;28;20037;-79
2021/12/29 02:09:54;;;;;;;9.10;6.97;;;7.30;76.00;;;;;;5023004;28;20014;-79
2021/12/29 02:12:20;;;;;;;9.10;7.27;;;7.40;76.10;;;;;;5027660;28;20040;-79
2021/12/29 02:14:46;;;;;;;6.93;5.53;;;7.40;75.80;;;;;;5017269;28;20090;-79
2021/12/29 02:17:13;;;;;;;7.00;5.80;;;7.30;76.10;;;;;;5030797;28;20053;-78
2021/12/29 02:19:45;;;;;;;7.83;5.47;;;7.30;76.10;;;;;;5025819;28;20028;-79
2021/12/29 02:22:31;;;;;;;9.82;7.38;;;7.40;76.10;;;;;;5033147;28;20029;-79
2021/12/29 02:25:19;;;;;;;11.13;8.97;;;7.30;75.70;;;;;;5027959;28;20058;-79
2021/12/29 02:27:45;;;;;;;13.60;9.47;;;7.30;76.00;;;;;;5032682;28;20072;-79
2021/12/29 02:30:12;;;;;;;14.57;10.33;;;7.20;76.30;;;;;;5021339;28;20025;-79
2021/12/29 02:32:38;;;;;;;14.67;10.53;;;7.20;76.30;;;;;;5027355;28;20033;-79
2021/12/29 02:35:05;;;;;;;15.70;10.23;;;7.20;76.30;;;;;;5017591;28;20072;-79
2021/12/29 02:37:31;;;;;;;13.73;9.53;;;7.20;76.40;;;;;;5026311;28;20033;-79
2021/12/29 02:39:56;;;;;;;17.00;10.63;;;7.20;76.20;;;;;;5025562;28;20033;-79
2021/12/29 02:42:27;;;;;;;11.37;8.90;;;7.30;76.30;;;;;;5031621;28;20392;-79
2021/12/29 02:44:53;;;;;;;13.57;9.83;;;7.30;76.30;;;;;;5032708;28;20132;-79
2021/12/29 02:47:20;;;;;;;11.57;9.30;;;7.30;76.40;;;;;;5029340;28;20044;-79
2021/12/29 02:49:46;;;;;;;12.03;8.83;;;7.40;76.30;;;;;;5022334;28;20148;-79
2021/12/29 02:52:14;;;;;;;12.03;9.53;;;7.40;76.30;;;;;;5030189;28;20033;-79
2021/12/29 02:54:40;;;;;;;11.33;8.57;;;7.40;76.40;;;;;;5029305;28;20483;-79
2021/12/29 02:57:06;;;;;;;10.60;9.50;;;7.40;76.30;;;;;;5022266;28;20029;-79
2021/12/29 02:59:32;;;;;;;12.33;10.47;;;7.40;76.30;;;;;;5022870;28;20032;-79
2021/12/29 03:01:58;;;;;;;13.57;9.73;;;7.40;76.50;;;;;;5031960;28;20041;-79
2021/12/29 03:04:24;;;;;;;12.80;9.57;;;7.40;76.60;;;;;;5029250;28;20029;-79
2021/12/29 03:06:50;;;;;;;14.07;10.23;;;7.40;76.30;;;;;;5037122;28;20033;-79
2021/12/29 03:09:16;;;;;;;14.67;10.10;;;7.40;76.20;;;;;;5029651;28;20420;-79
2021/12/29 03:11:42;;;;;;;12.77;8.87;;;7.50;76.20;;;;;;5029499;28;20072;-79
2021/12/29 03:14:10;;;;;;;12.77;10.07;;;7.50;76.10;;;;;;5032841;28;20037;-79
2021/12/29 03:16:37;;;;;;;13.17;10.43;;;7.50;76.10;;;;;;5030080;28;20025;-79
2021/12/29 03:19:04;;;;;;;13.63;10.13;;;7.50;76.00;;;;;;5027781;28;20097;-79
2021/12/29 03:21:31;;;;;;;13.23;9.50;;;7.40;75.90;;;;;;5028105;28;20041;-79
2021/12/29 03:23:57;;;;;;;13.37;11.17;;;7.30;76.10;;;;;;5031579;28;20076;-79
2021/12/29 03:26:23;;;;;;;14.43;10.20;;;7.30;76.10;;;;;;5027886;28;20053;-79
2021/12/29 03:28:49;;;;;;;15.83;10.20;;;7.30;76.00;;;;;;5027492;28;20033;-79
2021/12/29 03:31:17;;;;;;;13.63;10.70;;;7.20;76.70;;;;;;5030279;28;20025;-78
2021/12/29 03:33:45;;;;;;;14.77;9.97;;;7.20;76.70;;;;;;5024853;28;20458;-79
2021/12/29 03:36:12;;;;;;;12.30;9.50;;;7.20;76.60;;;;;;5031099;28;20178;-79
2021/12/29 03:38:39;;;;;;;13.13;9.30;;;7.30;76.80;;;;;;5025609;28;20069;-79
2021/12/29 03:41:10;;;;;;;11.47;9.57;;;7.30;76.80;;;;;;5021150;28;20037;-79
2021/12/29 03:43:38;;;;;;;11.27;8.90;;;7.30;76.60;;;;;;5032022;28;20461;-79
2021/12/29 03:46:05;;;;;;;13.50;9.70;;;7.30;76.60;;;;;;5017424;28;20053;-79
2021/12/29 03:48:32;;;;;;;11.67;8.83;;;7.40;76.60;;;;;;5011973;28;20045;-79
2021/12/29 03:51:00;;;;;;;12.77;10.33;;;7.40;76.80;;;;;;5023412;28;20033;-79
2021/12/29 03:53:26;;;;;;;12.90;8.40;;;7.40;76.80;;;;;;5025569;28;20072;-79
2021/12/29 03:55:53;;;;;;;12.23;8.63;;;7.50;76.60;;;;;;5014326;28;20026;-79
2021/12/29 03:58:20;;;;;;;11.40;8.63;;;7.40;76.80;;;;;;5027972;28;20120;-79
2021/12/29 04:00:48;;;;;;;15.13;9.60;;;7.40;76.60;;;;;;5029954;28;20056;-79
2021/12/29 04:03:14;;;;;;;13.43;10.63;;;7.40;76.70;;;;;;5029343;28;20037;-79
2021/12/29 04:05:41;;;;;;;13.10;9.10;;;7.50;76.70;;;;;;5028930;28;20037;-79
2021/12/29 04:08:07;;;;;;;11.63;8.70;;;7.50;76.60;;;;;;5020046;28;20045;-78
2021/12/29 04:10:33;;;;;;;15.03;9.03;;;7.50;76.60;;;;;;5019016;28;20633;-79
2021/12/29 04:12:59;;;;;;;14.53;9.40;;;7.40;76.60;;;;;;5029901;28;20931;-78
2021/12/29 04:15:25;;;;;;;11.50;8.73;;;7.40;76.50;;;;;;5026468;28;20037;-78
2021/12/29 04:17:57;;;;;;;10.80;8.23;;;7.40;76.60;;;;;;5020431;28;20037;-78
2021/12/29 04:23:13;;;;;;;9.50;8.23;;;7.40;76.30;;;;;;5022383;28;20073;-79
2021/12/29 04:25:39;;;;;;;9.67;7.70;;;7.40;76.50;;;;;;5025546;28;20029;-79
2021/12/29 04:28:10;;;;;;;10.73;8.03;;;7.40;76.60;;;;;;5023730;28;20124;-79
2021/12/29 04:30:36;;;;;;;12.57;9.07;;;7.40;76.60;;;;;;5020929;28;20036;-78
2021/12/29 04:33:02;;;;;;;12.40;9.47;;;7.40;76.50;;;;;;5020692;28;20021;-78
2021/12/29 04:35:28;;;;;;;11.73;7.73;;;7.40;76.70;;;;;;5027003;28;20377;-78
2021/12/29 04:37:54;;;;;;;12.47;8.50;;;7.40;76.80;;;;;;5026758;28;20029;-79
2021/12/29 04:40:20;;;;;;;12.63;8.73;;;7.40;77.00;;;;;;5026914;28;20021;-79
2021/12/29 04:42:46;;;;;;;9.60;7.37;;;7.40;76.90;;;;;;5021643;28;20052;-79
2021/12/29 04:45:13;;;;;;;11.57;9.60;;;7.50;77.00;;;;;;5021092;28;20079;-79
2021/12/29 04:47:42;;;;;;;13.57;9.93;;;7.50;76.80;;;;;;5024220;28;20026;-79
2021/12/29 04:50:23;;;;;;;13.70;8.50;;;7.40;76.80;;;;;;5023402;28;20030;-79
2021/12/29 04:52:49;;;;;;;11.03;8.20;;;7.40;76.90;;;;;;5032330;28;20022;-79
2021/12/29 04:55:15;;;;;;;12.53;8.57;;;7.40;77.00;;;;;;5032855;28;20362;-79
2021/12/29 04:57:41;;;;;;;11.77;8.53;;;7.40;77.10;;;;;;5034127;28;20029;-79
2021/12/29 05:00:08;;;;;;;13.70;8.30;;;7.40;77.10;;;;;;5032339;28;20117;-80
2021/12/29 05:02:33;;;;;;;11.47;7.93;;;7.40;77.00;;;;;;5026322;28;20029;-79
2021/12/29 05:05:07;;;;;;;8.80;7.53;;;7.40;77.20;;;;;;5027261;28;20026;-79
2021/12/29 05:10:18;;;;;;;14.77;9.27;;;7.40;77.20;;;;;;5034264;28;20040;-79
2021/12/29 05:12:43;;;;;;;12.77;8.10;;;7.40;77.30;;;;;;5033048;28;20029;-79
2021/12/29 05:15:09;;;;;;;13.47;7.97;;;7.40;77.40;;;;;;5024680;28;20025;-79
2021/12/29 05:17:35;;;;;;;10.63;7.67;;;7.40;77.50;;;;;;5022293;28;20056;-79
2021/12/29 05:20:01;;;;;;;10.93;7.43;;;7.50;77.40;;;;;;5032889;28;20029;-79
2021/12/29 05:22:26;;;;;;;10.33;7.33;;;7.50;77.30;;;;;;5033596;28;20017;-79
2021/12/29 05:24:52;;;;;;;12.23;8.17;;;7.40;77.30;;;;;;5030025;28;20041;-79
2021/12/29 05:27:18;;;;;;;10.60;7.73;;;7.50;77.40;;;;;;5024364;28;20033;-79
2021/12/29 05:29:43;;;;;;;11.57;7.73;;;7.50;77.30;;;;;;5029324;28;20037;-79
2021/12/29 05:32:09;;;;;;;10.97;7.90;;;7.50;77.30;;;;;;5033102;28;20017;-79
2021/12/29 05:34:36;;;;;;;11.10;8.27;;;7.50;77.20;;;;;;5030804;28;20397;-79
2021/12/29 05:37:01;;;;;;;13.00;7.80;;;7.50;77.20;;;;;;5029525;28;20469;-79
2021/12/29 05:39:27;;;;;;;12.70;7.23;;;7.50;77.20;;;;;;5027893;28;20029;-79
2021/12/29 05:41:53;;;;;;;11.70;7.50;;;7.50;77.10;;;;;;5032951;28;20463;-79
2021/12/29 05:44:18;;;;;;;8.67;6.53;;;7.50;77.30;;;;;;5026542;28;20030;-79
2021/12/29 05:46:44;;;;;;;11.57;8.10;;;7.50;77.20;;;;;;5031726;28;20045;-79
2021/12/29 05:49:11;;;;;;;13.60;7.73;;;7.50;77.20;;;;;;5024390;28;20116;-79
2021/12/29 05:51:37;;;;;;;7.80;6.97;;;7.50;77.20;;;;;;5043950;28;20671;-79
2021/12/29 05:54:03;;;;;;;11.83;8.83;;;7.40;77.40;;;;;;5026888;28;20022;-79
2021/12/29 05:56:29;;;;;;;12.03;8.50;;;7.40;77.40;;;;;;5023614;28;20025;-79
2021/12/29 05:58:59;;;;;;;11.87;9.10;;;7.50;77.60;;;;;;5032069;28;20025;-79
2021/12/29 06:01:25;;;;;;;12.33;8.37;;;7.50;77.40;;;;;;5024018;28;20087;-79
2021/12/29 06:03:51;;;;;;;12.63;10.13;;;7.50;77.40;;;;;;5026837;28;20036;-79
2021/12/29 06:06:17;;;;;;;10.43;7.77;;;7.50;77.50;;;;;;5028804;28;20652;-79
2021/12/29 06:08:43;;;;;;;11.03;7.63;;;7.50;77.50;;;;;;5029081;28;20524;-79
2021/12/29 06:11:08;;;;;;;13.23;9.07;;;7.50;77.70;;;;;;5021564;28;20189;-79
2021/12/29 06:13:34;;;;;;;19.33;11.93;;;7.50;77.50;;;;;;5021887;28;20056;-79
2021/12/29 06:16:00;;;;;;;18.87;11.83;;;7.40;77.20;;;;;;5028379;28;20025;-79
2021/12/29 06:18:26;;;;;;;22.47;14.63;;;7.50;77.60;;;;;;5033082;28;20112;-79
2021/12/29 06:20:51;;;;;;;14.83;11.03;;;7.50;77.60;;;;;;5027046;28;20463;-79
2021/12/29 06:23:17;;;;;;;16.13;11.33;;;7.50;77.50;;;;;;5025160;28;20148;-79
2021/12/29 06:25:43;;;;;;;13.93;9.47;;;7.40;77.30;;;;;;5026237;28;20071;-79
2021/12/29 06:28:09;;;;;;;11.70;9.43;;;7.40;77.30;;;;;;5030400;28;20078;-79
2021/12/29 06:30:34;;;;;;;12.37;9.70;;;7.40;77.40;;;;;;5027776;28;20032;-79
2021/12/29 06:33:00;;;;;;;15.20;9.50;;;7.40;77.30;;;;;;5021089;28;20029;-79
2021/12/29 06:35:26;;;;;;;15.20;9.27;;;7.40;77.50;;;;;;5025968;28;20052;-79
2021/12/29 06:37:52;;;;;;;12.43;9.27;;;7.50;77.50;;;;;;5028413;28;20021;-79
2021/12/29 06:40:18;;;;;;;14.37;10.40;;;7.50;77.40;;;;;;5025383;28;20030;-79
2021/12/29 06:42:44;;;;;;;12.53;8.37;;;7.50;77.30;;;;;;5025112;28;20496;-79
2021/12/29 06:45:10;;;;;;;12.23;7.67;;;7.50;77.40;;;;;;5025483;28;20037;-79
2021/12/29 06:47:36;;;;;;;10.43;7.33;;;7.50;77.30;;;;;;5030123;28;20033;-79
2021/12/29 06:50:04;;;;;;;7.83;5.97;;;7.50;77.30;;;;;;5039954;28;20032;-79
2021/12/29 06:52:29;;;;;;;18.63;13.23;;;7.50;77.20;;;;;;5029777;28;20021;-79
2021/12/29 06:54:55;;;;;;;19.60;14.20;;;7.50;77.30;;;;;;5025025;28;20773;-79
2021/12/29 06:57:21;;;;;;;21.90;14.50;;;7.50;77.20;;;;;;5023657;28;20033;-79
2021/12/29 06:59:47;;;;;;;23.90;19.77;;;7.50;77.40;;;;;;5029778;28;20028;-79
2021/12/29 07:02:14;;;;;;;25.10;18.37;;;7.40;77.20;;;;;;5024137;28;20021;-79
2021/12/29 07:04:41;;;;;;;23.13;16.53;;;7.50;77.30;;;;;;5020695;28;20029;-79
2021/12/29 07:07:06;;;;;;;20.30;16.20;;;7.50;77.20;;;;;;5023707;28;20427;-79
2021/12/29 07:09:33;;;;;;;22.73;17.57;;;7.40;77.40;;;;;;5027364;28;20017;-79
2021/12/29 07:11:58;;;;;;;24.73;18.47;;;7.40;77.40;;;;;;5028708;28;20053;-79
2021/12/29 07:14:24;;;;;;;18.20;12.97;;;7.50;77.40;;;;;;5028876;28;20049;-79
2021/12/29 07:16:50;;;;;;;14.87;10.60;;;7.40;77.40;;;;;;5026811;28;20116;-79
2021/12/29 07:19:17;;;;;;;10.67;8.07;;;7.40;77.30;;;;;;5024513;28;20032;-79
2021/12/29 07:21:43;;;;;;;15.10;9.53;;;7.40;77.40;;;;;;5027065;28;20377;-79
2021/12/29 07:24:09;;;;;;;14.87;8.63;;;7.50;77.60;;;;;;5024795;28;20069;-79
2021/12/29 07:26:35;;;;;;;12.77;8.13;;;7.50;77.60;;;;;;5023305;28;20025;-79
2021/12/29 07:29:02;;;;;;;11.07;7.70;;;7.50;77.50;;;;;;5021615;28;20031;-79
2021/12/29 07:31:28;;;;;;;15.03;8.13;;;7.60;77.50;;;;;;5026444;28;20037;-79
2021/12/29 07:33:54;;;;;;;8.97;6.30;;;7.70;77.30;;;;;;5024154;28;20043;-79
2021/12/29 07:36:20;;;;;;;11.30;7.10;;;7.60;77.30;;;;;;5026363;28;20057;-79
2021/12/29 07:38:46;;;;;;;11.30;6.80;;;7.70;77.30;;;;;;5028513;28;20429;-79
2021/12/29 07:41:12;;;;;;;10.43;6.93;;;7.70;77.30;;;;;;5027757;28;20063;-79
2021/12/29 07:43:39;;;;;;;10.27;6.93;;;7.70;77.30;;;;;;5028252;28;20036;-79
2021/12/29 07:46:06;;;;;;;29.13;17.43;;;7.60;77.30;;;;;;5029220;28;20041;-79
2021/12/29 07:48:33;;;;;;;31.93;20.20;;;7.60;77.10;;;;;;5026618;28;20040;-79
2021/12/29 07:51:01;;;;;;;32.67;20.00;;;7.70;77.60;;;;;;5024303;28;20052;-79
2021/12/29 07:53:27;;;;;;;28.13;19.40;;;7.70;77.50;;;;;;5025154;28;20030;-79
2021/12/29 07:55:53;;;;;;;30.40;19.77;;;7.70;77.40;;;;;;5021809;28;21481;-79
2021/12/29 07:58:18;;;;;;;22.80;14.87;;;7.60;77.50;;;;;;5014922;28;20037;-79
2021/12/29 08:00:45;;;;;;;21.53;14.13;;;7.70;77.60;;;;;;5024884;28;20052;-79
2021/12/29 08:03:14;;;;;;;24.57;13.67;;;7.60;77.40;;;;;;5028444;28;20025;-79
2021/12/29 08:05:41;;;;;;;20.30;11.30;;;7.70;77.40;;;;;;5027749;28;20075;-80
2021/12/29 08:08:07;;;;;;;15.90;11.10;;;7.70;77.40;;;;;;5025731;28;20032;-79
2021/12/29 08:10:34;;;;;;;14.97;11.33;;;7.60;77.30;;;;;;5025717;28;20029;-79
2021/12/29 08:13:00;;;;;;;15.37;10.77;;;7.70;77.40;;;;;;5022437;28;20026;-79
2021/12/29 08:15:26;;;;;;;20.23;11.87;;;7.70;77.40;;;;;;5024892;28;20120;-79
2021/12/29 08:17:51;;;;;;;26.33;18.80;;;7.70;77.30;;;;;;5019965;28;20129;-79
2021/12/29 08:20:18;;;;;;;23.53;17.00;;;7.70;77.30;;;;;;5029459;28;20033;-79
2021/12/29 08:22:44;;;;;;;23.60;16.53;;;7.70;77.40;;;;;;5037820;28;20374;-79
2021/12/29 08:25:09;;;;;;;29.77;19.73;;;7.70;77.30;;;;;;5020936;28;20067;-79
2021/12/29 08:27:35;;;;;;;16.57;12.13;;;7.70;77.40;;;;;;5028629;28;20025;-79
2021/12/29 08:30:01;;;;;;;16.03;10.27;;;7.70;77.30;;;;;;5027154;28;20553;-79
2021/12/29 08:32:27;;;;;;;15.67;9.73;;;7.60;77.50;;;;;;5023527;28;20057;-79
2021/12/29 08:34:54;;;;;;;15.57;10.47;;;7.60;77.50;;;;;;5038742;28;20053;-79
2021/12/29 08:37:20;;;;;;;14.97;9.60;;;7.60;77.60;;;;;;5031444;28;20030;-79
2021/12/29 08:39:45;;;;;;;15.57;9.90;;;7.60;77.90;;;;;;5033014;28;20033;-79
2021/12/29 08:42:12;;;;;;;15.43;10.40;;;7.70;77.80;;;;;;5028444;28;20488;-79
2021/12/29 08:44:38;;;;;;;13.77;10.20;;;7.70;77.90;;;;;;5028830;28;20447;-79
2021/12/29 08:47:04;;;;;;;14.77;10.87;;;7.70;77.90;;;;;;5021587;28;20095;-79
2021/12/29 08:49:30;;;;;;;17.67;11.50;;;7.80;77.80;;;;;;5019388;28;20040;-79
2021/12/29 08:51:57;;;;;;;19.80;11.63;;;7.80;77.70;;;;;;5028875;28;20021;-79
2021/12/29 08:54:23;;;;;;;17.47;9.97;;;7.80;77.70;;;;;;5022377;28;20044;-79
2021/12/29 08:56:50;;;;;;;16.43;9.90;;;7.80;77.70;;;;;;5027593;28;20025;-79
2021/12/29 08:59:16;;;;;;;18.87;10.77;;;7.90;77.90;;;;;;5025369;28;20026;-79
2021/12/29 09:01:42;;;;;;;16.03;11.57;;;7.90;77.90;;;;;;5023689;28;20036;-79
2021/12/29 09:04:08;;;;;;;19.53;11.13;;;8.00;78.00;;;;;;5027141;28;20101;-79
2021/12/29 09:06:34;;;;;;;17.83;12.40;;;8.10;77.80;;;;;;5029046;28;20022;-79
2021/12/29 09:09:00;;;;;;;20.37;11.90;;;8.10;77.80;;;;;;5031808;28;20082;-79
2021/12/29 09:11:26;;;;;;;13.37;8.50;;;8.20;77.70;;;;;;5028170;28;20054;-79
2021/12/29 09:13:53;;;;;;;15.03;9.33;;;8.30;77.70;;;;;;5029197;28;20025;-79
2021/12/29 09:16:19;;;;;;;10.10;8.30;;;8.30;77.70;;;;;;5027524;28;20223;-79
2021/12/29 09:18:45;;;;;;;9.97;7.80;;;8.40;77.80;;;;;;5014486;28;20052;-79
2021/12/29 09:21:14;;;;;;;9.67;7.40;;;8.40;78.00;;;;;;5023528;28;20463;-79
2021/12/29 09:23:41;;;;;;;11.30;7.70;;;8.50;77.80;;;;;;5031477;28;20388;-79
2021/12/29 09:26:09;;;;;;;12.23;8.57;;;8.60;77.70;;;;;;5030276;28;20556;-79
2021/12/29 09:28:35;;;;;;;14.83;10.30;;;8.70;77.50;;;;;;5028193;28;20484;-80
2021/12/29 09:31:01;;;;;;;20.83;10.50;;;8.80;77.40;;;;;;5029984;28;20408;-79
2021/12/29 09:33:27;;;;;;;13.70;9.03;;;8.80;77.20;;;;;;5019730;28;20036;-79
2021/12/29 09:35:57;;;;;;;11.57;7.87;;;8.90;77.30;;;;;;5026953;28;20056;-79
2021/12/29 09:38:24;;;;;;;17.27;11.60;;;8.90;77.10;;;;;;5022381;28;20054;-79
2021/12/29 09:40:50;;;;;;;15.20;9.10;;;9.00;77.30;;;;;;5024670;28;20030;-79
2021/12/29 09:43:16;;;;;;;9.50;7.07;;;9.20;77.00;;;;;;5028307;28;20029;-80
2021/12/29 09:45:43;;;;;;;15.40;10.27;;;9.20;76.80;;;;;;5025250;28;20049;-79
2021/12/29 09:48:09;;;;;;;13.03;8.97;;;9.30;76.70;;;;;;5027076;28;20104;-79
2021/12/29 09:50:35;;;;;;;14.53;6.70;;;9.30;76.80;;;;;;5027733;28;20437;-80
2021/12/29 09:53:02;;;;;;;12.67;7.40;;;9.40;76.60;;;;;;5031550;28;20129;-79
2021/12/29 09:55:28;;;;;;;9.57;7.40;;;9.50;76.20;;;;;;5031698;28;20028;-80
2021/12/29 09:57:57;;;;;;;15.13;8.57;;;9.50;76.20;;;;;;5028253;28;20025;-79
2021/12/29 10:00:27;;;;;;;10.90;7.90;;;9.50;76.20;;;;;;5031857;28;20612;-80
2021/12/29 10:02:55;;;;;;;11.00;7.27;;;9.60;76.60;;;;;;5019516;28;20034;-80
2021/12/29 10:05:24;;;;;;;15.63;10.47;;;9.70;76.20;;;;;;5021562;28;20061;-80
2021/12/29 10:08:09;;;;;;;10.73;8.13;;;9.80;75.90;;;;;;5021534;28;20117;-80
2021/12/29 10:10:39;;;;;;;14.23;7.47;;;10.00;75.90;;;;;;5028996;28;20025;-80
2021/12/29 10:13:07;;;;;;;12.63;7.80;;;10.10;75.40;;;;;;5025797;28;20106;-80
2021/12/29 10:15:47;;;;;;;12.33;7.87;;;10.20;75.30;;;;;;5029588;28;20025;-80
2021/12/29 10:18:19;;;;;;;15.03;8.13;;;10.30;74.90;;;;;;5025243;28;20431;-80
2021/12/29 10:20:51;;;;;;;11.15;7.57;;;10.30;74.80;;;;;;5018172;28;20412;-80
2021/12/29 10:23:29;;;;;;;12.50;7.70;;;10.40;74.80;;;;;;5028711;28;20031;-80
2021/12/29 10:26:03;;;;;;;14.97;7.30;;;10.60;74.50;;;;;;5026502;28;20029;-80
2021/12/29 10:28:30;;;;;;;11.57;6.90;;;10.70;74.10;;;;;;5031664;28;20119;-79
2021/12/29 10:31:06;;;;;;;15.77;9.43;;;10.80;73.80;;;;;;5030050;28;20384;-80
2021/12/29 10:33:35;;;;;;;43.27;18.90;;;11.00;73.60;;;;;;5023980;28;20380;-80
2021/12/29 10:36:22;;;;;;;54.13;28.83;;;11.20;73.20;;;;;;5028544;28;20017;-80
2021/12/29 10:39:03;;;;;;;36.23;19.63;;;11.30;73.10;;;;;;5033031;28;20104;-80
2021/12/29 10:41:31;;;;;;;37.67;19.43;;;11.40;72.90;;;;;;5033337;28;20022;-80
2021/12/29 10:44:00;;;;;;;20.83;12.20;;;11.30;72.80;;;;;;5031766;28;20496;-80
2021/12/29 10:46:31;;;;;;;11.17;6.83;;;11.30;72.60;;;;;;5031451;28;20132;-80
2021/12/29 10:48:59;;;;;;;7.03;4.93;;;11.20;72.50;;;;;;5031709;28;20060;-80
2021/12/29 10:51:36;;;;;;;12.10;7.53;;;11.30;72.40;;;;;;5029696;28;20057;-80
2021/12/29 10:54:15;;;;;;;14.37;9.23;;;11.30;72.30;;;;;;5031452;28;20444;-80
2021/12/29 10:56:44;;;;;;;14.47;8.00;;;11.30;72.30;;;;;;5029727;28;20022;-80
2021/12/29 10:59:17;;;;;;;9.73;6.20;;;11.40;72.40;;;;;;5030913;28;20033;-80
2021/12/29 11:01:43;;;;;;;9.63;6.57;;;11.50;72.30;;;;;;5030660;28;20029;-80
2021/12/29 11:04:13;;;;;;;10.60;6.70;;;11.60;72.00;;;;;;5031592;28;20025;-80
2021/12/29 11:06:43;;;;;;;12.40;8.07;;;11.50;71.60;;;;;;5012048;28;20049;-80
2021/12/29 11:09:11;;;;;;;10.00;7.00;;;11.50;71.70;;;;;;5020880;28;20104;-80
2021/12/29 11:11:42;;;;;;;9.50;6.63;;;11.40;71.70;;;;;;5041433;28;20024;-80
2021/12/29 11:14:17;;;;;;;11.90;7.30;;;11.30;71.60;;;;;;5037844;28;20119;-80
2021/12/29 11:16:45;;;;;;;10.20;7.57;;;11.30;71.70;;;;;;5024153;28;20053;-80
2021/12/29 11:19:11;;;;;;;9.30;6.37;;;11.20;71.70;;;;;;5013418;28;20385;-80
2021/12/29 11:21:40;;;;;;;7.60;5.97;;;11.10;71.70;;;;;;5028548;28;20476;-79
2021/12/29 11:24:23;;;;;;;10.20;6.17;;;11.10;72.00;;;;;;5028611;28;20745;-80
2021/12/29 11:26:50;;;;;;;16.63;11.15;;;11.00;71.90;;;;;;5011457;28;20030;-80
2021/12/29 11:29:19;;;;;;;17.70;12.90;;;11.00;72.10;;;;;;5035598;28;20468;-79
2021/12/29 11:31:51;;;;;;;25.33;15.10;;;11.00;71.90;;;;;;5026538;28;20025;-78
2021/12/29 11:34:24;;;;;;;36.55;20.58;;;10.90;71.80;;;;;;5031622;28;20021;-80
2021/12/29 11:37:09;;;;;;;42.40;23.00;;;10.90;71.80;;;;;;5025337;28;20124;-80
2021/12/29 11:39:41;;;;;;;27.27;14.70;;;10.90;72.00;;;;;;5041177;28;20037;-80
2021/12/29 11:42:07;;;;;;;;;;;10.80;72.00;;;;;;5025815;28;20091;-79
2021/12/29 11:44:33;;;;;;;17.50;12.27;;;10.90;72.70;;;;;;5011822;28;19995;-80
2021/12/29 11:46:59;;;;;;;28.93;16.97;;;10.90;71.90;;;;;;5028274;28;20552;-80
2021/12/29 11:49:25;;;;;;;32.57;18.40;;;10.90;72.00;;;;;;5020239;28;20139;-80
2021/12/29 11:52:14;;;;;;;22.37;14.90;;;10.90;72.00;;;;;;5029701;28;20025;-80
2021/12/29 11:54:57;;;;;;;22.60;15.60;;;10.90;72.00;;;;;;5044377;28;20041;-80
2021/12/29 11:57:25;;;;;;;11.57;7.90;;;10.90;71.90;;;;;;5031454;28;20033;-79
2021/12/29 11:59:52;;;;;;;12.90;8.07;;;10.90;72.00;;;;;;5030923;28;20034;-79
2021/12/29 12:02:26;;;;;;;9.73;7.60;;;10.90;72.00;;;;;;5029691;28;20044;-80
2021/12/29 12:05:11;;;;;;;9.80;7.13;;;10.90;72.00;;;;;;5028676;28;20033;-80
2021/12/29 12:07:38;;;;;;;14.50;7.93;;;10.90;72.00;;;;;;5020639;28;20044;-80
2021/12/29 12:10:11;;;;;;;12.03;7.57;;;10.80;71.90;;;;;;5032708;28;20025;-79
2021/12/29 12:12:52;;;;;;;11.13;7.73;;;10.80;72.10;;;;;;5029406;28;20053;-79
2021/12/29 12:15:29;;;;;;;11.07;8.00;;;10.90;72.10;;;;;;5020044;28;20033;-80
2021/12/29 12:17:55;;;;;;;9.13;6.87;;;10.90;72.20;;;;;;5030094;28;20504;-80
2021/12/29 12:20:22;;;;;;;10.57;7.47;;;10.90;72.20;;;;;;5025926;28;20036;-80
2021/12/29 12:22:48;;;;;;;8.70;7.37;;;10.90;72.10;;;;;;5030376;28;20475;-79
2021/12/29 12:25:29;;;;;;;9.60;6.90;;;10.90;72.70;;;;;;5024487;28;20369;-80
2021/12/29 12:28:01;;;;;;;8.77;7.87;;;10.90;72.00;;;;;;5028555;28;20037;-80
2021/12/29 12:30:42;;;;;;;10.70;8.50;;;10.80;72.20;;;;;;5028314;28;20451;-79
2021/12/29 12:33:26;;;;;;;12.53;8.40;;;10.70;72.30;;;;;;5025297;28;20060;-79
2021/12/29 12:35:53;;;;;;;11.20;8.40;;;10.80;72.40;;;;;;5019285;28;20388;-80
2021/12/29 12:38:27;;;;;;;9.10;7.53;;;10.70;72.10;;;;;;5027338;28;20048;-79
2021/12/29 12:41:12;;;;;;;8.43;7.57;;;10.80;72.20;;;;;;5022447;28;20086;-79
2021/12/29 12:44:08;;;;;;;12.23;8.63;;;10.70;72.00;;;;;;5032057;28;20513;-79
2021/12/29 12:46:44;;;;;;;11.97;8.70;;;10.70;72.00;;;;;;5024579;28;20480;-79
2021/12/29 12:49:15;;;;;;;10.83;8.70;;;10.70;72.00;;;;;;5024525;28;20034;-79
2021/12/29 12:51:52;;;;;;;12.73;10.07;;;10.60;72.20;;;;;;5027331;28;20044;-79
2021/12/29 12:54:20;;;;;;;13.03;10.57;;;10.60;72.20;;;;;;5021252;28;20029;-79